RYR533 EPMO-ESGG
Flight info
| Callsign | RYR533 |
|---|---|
| Flight time | N/A |
| Altitude | 24000 |
| Route | OLILA3J OLILA DCT SOMOR DCT GRUDA L621 MALOX/N0443F340 L621 LUSID DCT NILEN L617 ARQUS ARQUS1X |
| Aircraft | B738/M-SDE2E3FGHIRWXY/LB1 |
Departure
| Time | 2026-05-06 10:54 |
|---|---|
| Airport | Warsaw Modlin Airport (EPMO) |
Arrival
| Time | N/A |
|---|---|
| Airport | Göteborg Landvetter Airport (ESGG) |
| Time | Latitude | Longitude | Altitude | Speed | Heading |
|---|---|---|---|---|---|
| 2026-05-06 10:24 | 52.44782 | 20.65608 | 348 ft | 0 kts | 188° |
| 2026-05-06 10:43 | 52.44794 | 20.65610 | 358 ft | 3 kts | 171° |
| 2026-05-06 10:43 | 52.44810 | 20.65599 | 356 ft | 3 kts | 127° |
| 2026-05-06 10:44 | 52.44818 | 20.65553 | 351 ft | 1 kts | 82° |
| 2026-05-06 10:47 | 52.44821 | 20.65587 | 352 ft | 7 kts | 82° |
| 2026-05-06 10:47 | 52.44828 | 20.65676 | 350 ft | 8 kts | 82° |
| 2026-05-06 10:48 | 52.44836 | 20.65767 | 348 ft | 8 kts | 82° |
| 2026-05-06 10:48 | 52.44844 | 20.65854 | 352 ft | 8 kts | 82° |
| 2026-05-06 10:48 | 52.44851 | 20.65939 | 356 ft | 7 kts | 81° |
| 2026-05-06 10:48 | 52.44859 | 20.66021 | 348 ft | 7 kts | 81° |
| 2026-05-06 10:49 | 52.44867 | 20.66100 | 356 ft | 7 kts | 81° |
| 2026-05-06 10:49 | 52.44875 | 20.66189 | 352 ft | 9 kts | 81° |
| 2026-05-06 10:49 | 52.44886 | 20.66304 | 348 ft | 11 kts | 81° |
| 2026-05-06 10:49 | 52.44898 | 20.66427 | 352 ft | 11 kts | 81° |
| 2026-05-06 10:50 | 52.44909 | 20.66546 | 354 ft | 10 kts | 82° |
| 2026-05-06 10:50 | 52.44919 | 20.66662 | 348 ft | 10 kts | 81° |
| 2026-05-06 10:50 | 52.44930 | 20.66774 | 348 ft | 10 kts | 81° |
| 2026-05-06 10:50 | 52.44941 | 20.66884 | 352 ft | 10 kts | 81° |
| 2026-05-06 10:51 | 52.44951 | 20.66990 | 348 ft | 9 kts | 81° |
| 2026-05-06 10:51 | 52.44989 | 20.67068 | 348 ft | 9 kts | 17° |
| 2026-05-06 10:51 | 52.45053 | 20.67061 | 350 ft | 10 kts | 353° |
| 2026-05-06 10:51 | 52.45122 | 20.67044 | 356 ft | 10 kts | 352° |
| 2026-05-06 10:52 | 52.45191 | 20.67024 | 354 ft | 10 kts | 345° |
| 2026-05-06 10:52 | 52.45253 | 20.66985 | 353 ft | 10 kts | 328° |
| 2026-05-06 10:52 | 52.45280 | 20.66890 | 352 ft | 9 kts | 269° |
| 2026-05-06 10:52 | 52.45277 | 20.66860 | 348 ft | 0 kts | 257° |
| 2026-05-06 10:53 | 52.45270 | 20.66796 | 351 ft | 30 kts | 261° |
| 2026-05-06 10:53 | 52.45197 | 20.66032 | 352 ft | 103 kts | 261° |
| 2026-05-06 10:53 | 52.45053 | 20.64515 | 356 ft | 163 kts | 258° |
| 2026-05-06 10:53 | 52.44879 | 20.62466 | 643 ft | 194 kts | 259° |
| 2026-05-06 10:54 | 52.44701 | 20.60195 | 1235 ft | 203 kts | 261° |
| 2026-05-06 10:54 | 52.44523 | 20.57971 | 2367 ft | 191 kts | 259° |
| 2026-05-06 10:54 | 52.44494 | 20.55745 | 3154 ft | 207 kts | 286° |
| 2026-05-06 10:54 | 52.45242 | 20.53783 | 3957 ft | 210 kts | 310° |
| 2026-05-06 10:55 | 52.46483 | 20.52350 | 4348 ft | 235 kts | 345° |
| 2026-05-06 10:55 | 52.48189 | 20.52081 | 4751 ft | 260 kts | 356° |
| 2026-05-06 10:55 | 52.50100 | 20.51948 | 5216 ft | 284 kts | 356° |
| 2026-05-06 10:55 | 52.52077 | 20.51814 | 6129 ft | 285 kts | 355° |
| 2026-05-06 10:56 | 52.54070 | 20.51672 | 6912 ft | 289 kts | 355° |
| 2026-05-06 10:56 | 52.56103 | 20.51500 | 7647 ft | 295 kts | 354° |
| 2026-05-06 10:56 | 52.58169 | 20.51317 | 8417 ft | 298 kts | 354° |
| 2026-05-06 10:56 | 52.60247 | 20.51135 | 9201 ft | 300 kts | 354° |
| 2026-05-06 10:57 | 52.62336 | 20.50778 | 9884 ft | 303 kts | 348° |
| 2026-05-06 10:57 | 52.64468 | 20.50211 | 10223 ft | 320 kts | 346° |
| 2026-05-06 10:57 | 52.66612 | 20.48995 | 10372 ft | 333 kts | 324° |
| 2026-05-06 10:57 | 52.68300 | 20.46372 | 10593 ft | 339 kts | 299° |
| 2026-05-06 10:58 | 52.69203 | 20.42811 | 11068 ft | 338 kts | 279° |
| 2026-05-06 10:58 | 52.69680 | 20.39023 | 11718 ft | 338 kts | 278° |
| 2026-05-06 10:58 | 52.70143 | 20.35210 | 12366 ft | 340 kts | 280° |
| 2026-05-06 10:58 | 52.71075 | 20.31586 | 12914 ft | 352 kts | 300° |
| 2026-05-06 10:59 | 52.72633 | 20.28431 | 13546 ft | 356 kts | 307° |
| 2026-05-06 10:59 | 52.74297 | 20.25378 | 14039 ft | 360 kts | 308° |
| 2026-05-06 10:59 | 52.75993 | 20.22324 | 14521 ft | 362 kts | 308° |
| 2026-05-06 10:59 | 52.77701 | 20.19248 | 14994 ft | 364 kts | 308° |
| 2026-05-06 11:00 | 52.79416 | 20.16140 | 15495 ft | 366 kts | 308° |
| 2026-05-06 11:00 | 52.81124 | 20.13019 | 15973 ft | 367 kts | 308° |
| 2026-05-06 11:00 | 52.82837 | 20.09872 | 16396 ft | 369 kts | 307° |
| 2026-05-06 11:00 | 52.84556 | 20.06702 | 16851 ft | 370 kts | 307° |
| 2026-05-06 11:01 | 52.86276 | 20.03517 | 17274 ft | 372 kts | 307° |
| 2026-05-06 11:01 | 52.88007 | 20.00306 | 17683 ft | 374 kts | 307° |
| 2026-05-06 11:01 | 52.89745 | 19.97075 | 18083 ft | 376 kts | 307° |
| 2026-05-06 11:01 | 52.91493 | 19.93822 | 18410 ft | 379 kts | 307° |
| 2026-05-06 11:02 | 52.93250 | 19.90548 | 18732 ft | 381 kts | 307° |
| 2026-05-06 11:02 | 52.95013 | 19.87257 | 19048 ft | 383 kts | 307° |
| 2026-05-06 11:02 | 52.96762 | 19.83988 | 19354 ft | 385 kts | 307° |
| 2026-05-06 11:02 | 52.98540 | 19.80660 | 19655 ft | 387 kts | 307° |
| 2026-05-06 11:03 | 53.00332 | 19.77303 | 19954 ft | 388 kts | 307° |
| 2026-05-06 11:03 | 53.02125 | 19.73938 | 20243 ft | 390 kts | 307° |
| 2026-05-06 11:03 | 53.03928 | 19.70550 | 20527 ft | 392 kts | 307° |
| 2026-05-06 11:03 | 53.05736 | 19.67150 | 20799 ft | 394 kts | 307° |
| 2026-05-06 11:04 | 53.07555 | 19.63722 | 21067 ft | 395 kts | 307° |
| 2026-05-06 11:04 | 53.09376 | 19.60287 | 21331 ft | 397 kts | 307° |
| 2026-05-06 11:04 | 53.11206 | 19.56830 | 21601 ft | 398 kts | 307° |
| 2026-05-06 11:04 | 53.13026 | 19.53386 | 21935 ft | 398 kts | 307° |
| 2026-05-06 11:05 | 53.14857 | 19.49920 | 22317 ft | 396 kts | 307° |
| 2026-05-06 11:05 | 53.16668 | 19.46484 | 22684 ft | 394 kts | 307° |
| 2026-05-06 11:05 | 53.18477 | 19.43049 | 23006 ft | 394 kts | 307° |
| 2026-05-06 11:05 | 53.20283 | 19.39611 | 23300 ft | 394 kts | 307° |
| 2026-05-06 11:06 | 53.22087 | 19.36176 | 23596 ft | 393 kts | 307° |
| 2026-05-06 11:06 | 53.23883 | 19.32747 | 23736 ft | 393 kts | 306° |
| 2026-05-06 11:06 | 53.25676 | 19.29313 | 23756 ft | 392 kts | 306° |
| 2026-05-06 11:06 | 53.27437 | 19.25932 | 23738 ft | 392 kts | 306° |
| 2026-05-06 11:07 | 53.29229 | 19.22486 | 23747 ft | 392 kts | 306° |
| 2026-05-06 11:07 | 53.31017 | 19.19044 | 23756 ft | 392 kts | 306° |
| 2026-05-06 11:07 | 53.32807 | 19.15592 | 23758 ft | 393 kts | 306° |
| 2026-05-06 11:07 | 53.34602 | 19.12128 | 23759 ft | 393 kts | 306° |
| 2026-05-06 11:08 | 53.36398 | 19.08657 | 23761 ft | 393 kts | 306° |
| 2026-05-06 11:08 | 53.38168 | 19.05232 | 23758 ft | 393 kts | 306° |
| 2026-05-06 11:08 | 53.39956 | 19.01768 | 23761 ft | 393 kts | 306° |
| 2026-05-06 11:08 | 53.41742 | 18.98301 | 23766 ft | 392 kts | 306° |
| 2026-05-06 11:09 | 53.43524 | 18.94839 | 23767 ft | 392 kts | 306° |
| 2026-05-06 11:09 | 53.45307 | 18.91367 | 23772 ft | 392 kts | 306° |
| 2026-05-06 11:09 | 53.47090 | 18.87894 | 23766 ft | 392 kts | 305° |
| 2026-05-06 11:09 | 53.48870 | 18.84422 | 23767 ft | 392 kts | 305° |
| 2026-05-06 11:10 | 53.50644 | 18.80955 | 23770 ft | 391 kts | 305° |
| 2026-05-06 11:10 | 53.52387 | 18.77442 | 23771 ft | 388 kts | 301° |
| 2026-05-06 11:10 | 53.53913 | 18.73723 | 23787 ft | 386 kts | 298° |
| 2026-05-06 11:10 | 53.55393 | 18.69953 | 23776 ft | 386 kts | 298° |
| 2026-05-06 11:11 | 53.56863 | 18.66166 | 23778 ft | 386 kts | 298° |
| 2026-05-06 11:11 | 53.58328 | 18.62386 | 23784 ft | 386 kts | 298° |
| 2026-05-06 11:11 | 53.59796 | 18.58605 | 23786 ft | 386 kts | 298° |
| 2026-05-06 11:11 | 53.60769 | 18.56104 | 23788 ft | 386 kts | 298° |
| 2026-05-06 11:12 | 53.62245 | 18.52315 | 23786 ft | 386 kts | 298° |
| 2026-05-06 11:12 | 53.63723 | 18.48524 | 23785 ft | 386 kts | 298° |
| 2026-05-06 11:12 | 53.65199 | 18.44738 | 23786 ft | 386 kts | 298° |
| 2026-05-06 11:12 | 53.66674 | 18.40950 | 23794 ft | 386 kts | 298° |
| 2026-05-06 11:13 | 53.68149 | 18.37160 | 23794 ft | 386 kts | 298° |
| 2026-05-06 11:13 | 53.69620 | 18.33373 | 23792 ft | 386 kts | 298° |
| 2026-05-06 11:13 | 53.71092 | 18.29579 | 23789 ft | 386 kts | 298° |
| 2026-05-06 11:13 | 53.72558 | 18.25795 | 23792 ft | 385 kts | 298° |
| 2026-05-06 11:14 | 53.74023 | 18.22005 | 23792 ft | 385 kts | 298° |
| 2026-05-06 11:14 | 53.75489 | 18.18210 | 23791 ft | 385 kts | 298° |
| 2026-05-06 11:14 | 53.76933 | 18.14464 | 23793 ft | 384 kts | 298° |
| 2026-05-06 11:14 | 53.78388 | 18.10684 | 23797 ft | 384 kts | 298° |
| 2026-05-06 11:15 | 53.79844 | 18.06895 | 23797 ft | 384 kts | 298° |
| 2026-05-06 11:15 | 53.81301 | 18.03099 | 23794 ft | 384 kts | 298° |
| 2026-05-06 11:15 | 53.82775 | 17.99253 | 23795 ft | 384 kts | 298° |
| 2026-05-06 11:15 | 53.84208 | 17.95508 | 23798 ft | 384 kts | 298° |
| 2026-05-06 11:16 | 53.85660 | 17.91706 | 23800 ft | 385 kts | 298° |
| 2026-05-06 11:16 | 53.87112 | 17.87899 | 23799 ft | 385 kts | 297° |
| 2026-05-06 11:16 | 53.88565 | 17.84083 | 23798 ft | 385 kts | 297° |
| 2026-05-06 11:16 | 53.90016 | 17.80269 | 23808 ft | 386 kts | 297° |
| 2026-05-06 11:17 | 53.91472 | 17.76433 | 23805 ft | 386 kts | 297° |
| 2026-05-06 11:17 | 53.92926 | 17.72598 | 23806 ft | 386 kts | 297° |
| 2026-05-06 11:17 | 53.94379 | 17.68760 | 23798 ft | 386 kts | 297° |
| 2026-05-06 11:17 | 53.95833 | 17.64914 | 23807 ft | 386 kts | 297° |
| 2026-05-06 11:18 | 53.97283 | 17.61072 | 23803 ft | 386 kts | 297° |
| 2026-05-06 11:18 | 53.98734 | 17.57223 | 23801 ft | 386 kts | 297° |
| 2026-05-06 11:18 | 54.00179 | 17.53381 | 23803 ft | 386 kts | 297° |
| 2026-05-06 11:18 | 54.01599 | 17.49602 | 23807 ft | 386 kts | 297° |
| 2026-05-06 11:19 | 54.03071 | 17.45677 | 23808 ft | 386 kts | 297° |
| 2026-05-06 11:19 | 54.04512 | 17.41830 | 23807 ft | 385 kts | 297° |
| 2026-05-06 11:19 | 54.05932 | 17.38034 | 23805 ft | 385 kts | 297° |
| 2026-05-06 11:19 | 54.07370 | 17.34180 | 23812 ft | 385 kts | 297° |
| 2026-05-06 11:20 | 54.08812 | 17.30312 | 23809 ft | 385 kts | 297° |
| 2026-05-06 11:20 | 54.10249 | 17.26450 | 23812 ft | 385 kts | 297° |
| 2026-05-06 11:20 | 54.11684 | 17.22590 | 23817 ft | 385 kts | 297° |
| 2026-05-06 11:20 | 54.13116 | 17.18728 | 23815 ft | 385 kts | 297° |
| 2026-05-06 11:21 | 54.14547 | 17.14867 | 23816 ft | 385 kts | 297° |
| 2026-05-06 11:21 | 54.15977 | 17.10998 | 23817 ft | 385 kts | 297° |
| 2026-05-06 11:21 | 54.17406 | 17.07129 | 23822 ft | 386 kts | 297° |
| 2026-05-06 11:21 | 54.18835 | 17.03252 | 23823 ft | 386 kts | 297° |
| 2026-05-06 11:22 | 54.20263 | 16.99376 | 23821 ft | 386 kts | 297° |
| 2026-05-06 11:22 | 54.21692 | 16.95489 | 23833 ft | 387 kts | 297° |
| 2026-05-06 11:22 | 54.23106 | 16.91636 | 23824 ft | 388 kts | 297° |
| 2026-05-06 11:22 | 54.24550 | 16.87739 | 23814 ft | 389 kts | 299° |
| 2026-05-06 11:23 | 54.26111 | 16.83940 | 23821 ft | 391 kts | 301° |
| 2026-05-06 11:23 | 54.27739 | 16.80222 | 23837 ft | 392 kts | 302° |
| 2026-05-06 11:23 | 54.29398 | 16.76505 | 23824 ft | 392 kts | 302° |
| 2026-05-06 11:23 | 54.31053 | 16.72799 | 23826 ft | 393 kts | 302° |
| 2026-05-06 11:24 | 54.32707 | 16.69069 | 23819 ft | 392 kts | 302° |
| 2026-05-06 11:24 | 54.34347 | 16.65348 | 23826 ft | 391 kts | 302° |
| 2026-05-06 11:24 | 54.35980 | 16.61619 | 23841 ft | 391 kts | 302° |
| 2026-05-06 11:24 | 54.37608 | 16.57884 | 23831 ft | 391 kts | 302° |
| 2026-05-06 11:25 | 54.39230 | 16.54151 | 23828 ft | 391 kts | 302° |
| 2026-05-06 11:25 | 54.40852 | 16.50407 | 23831 ft | 391 kts | 302° |
| 2026-05-06 11:25 | 54.42474 | 16.46660 | 23838 ft | 391 kts | 302° |
| 2026-05-06 11:25 | 54.44094 | 16.42909 | 23838 ft | 391 kts | 302° |
| 2026-05-06 11:26 | 54.45717 | 16.39147 | 23842 ft | 392 kts | 302° |
| 2026-05-06 11:26 | 54.47338 | 16.35382 | 23839 ft | 392 kts | 302° |
| 2026-05-06 11:26 | 54.48960 | 16.31613 | 23842 ft | 392 kts | 302° |
| 2026-05-06 11:26 | 54.50585 | 16.27828 | 23917 ft | 394 kts | 303° |
| 2026-05-06 11:27 | 54.52235 | 16.23978 | 23886 ft | 406 kts | 303° |
| 2026-05-06 11:27 | 54.53925 | 16.20022 | 23855 ft | 414 kts | 303° |
| 2026-05-06 11:27 | 54.55632 | 16.16026 | 23849 ft | 413 kts | 303° |
| 2026-05-06 11:27 | 54.57329 | 16.12056 | 23847 ft | 411 kts | 302° |
| 2026-05-06 11:28 | 54.59015 | 16.08108 | 23843 ft | 407 kts | 303° |
| 2026-05-06 11:28 | 54.60690 | 16.04173 | 23851 ft | 407 kts | 303° |
| 2026-05-06 11:28 | 54.62372 | 16.00208 | 23860 ft | 410 kts | 303° |
| 2026-05-06 11:28 | 54.64060 | 15.96228 | 23863 ft | 412 kts | 303° |
| 2026-05-06 11:29 | 54.65734 | 15.92274 | 23867 ft | 413 kts | 303° |
| 2026-05-06 11:29 | 54.67429 | 15.88263 | 23861 ft | 413 kts | 302° |
| 2026-05-06 11:29 | 54.69126 | 15.84244 | 23861 ft | 412 kts | 302° |
| 2026-05-06 11:29 | 54.70805 | 15.80260 | 23854 ft | 407 kts | 303° |
| 2026-05-06 11:30 | 54.72468 | 15.76309 | 23860 ft | 407 kts | 303° |
| 2026-05-06 11:30 | 54.74137 | 15.72327 | 23870 ft | 409 kts | 303° |
| 2026-05-06 11:30 | 54.75799 | 15.68325 | 23874 ft | 410 kts | 303° |
| 2026-05-06 11:30 | 54.77459 | 15.64308 | 23879 ft | 411 kts | 302° |
| 2026-05-06 11:31 | 54.78024 | 15.62935 | 23878 ft | 411 kts | 302° |